Time;durP1;ratioP1;P1;durP2;ratioP2;P2;SDS_P1;SDS_P2;PMS_P1;PMS_P2;Temp;Humidity;BMP_temperature;BMP_pressure;BME280_temperature;BME280_humidity;BME280_pressure;Samples;Min_cycle;Max_cycle;Signal;HPM_P1;HPM_P2
2023/01/04 00:00:14;;;;;;;6.38;1.40;;;;;;;7.47;87.73;101864.72;5086952;28;20034;-80
2023/01/04 00:02:40;;;;;;;5.00;1.67;;;;;;;7.43;88.39;101863.84;5085296;28;20040;-78
2023/01/04 00:05:05;;;;;;;3.95;1.48;;;;;;;7.42;88.96;101862.09;5083981;28;20521;-79
2023/01/04 00:07:31;;;;;;;6.22;1.40;;;;;;;7.43;89.26;101848.31;5082420;28;20031;-79
2023/01/04 00:09:56;;;;;;;5.72;1.40;;;;;;;7.39;89.70;101854.31;5087280;28;20047;-80
2023/01/04 00:12:22;;;;;;;5.10;1.58;;;;;;;7.39;90.20;101851.72;5087485;28;20032;-81
2023/01/04 00:14:47;;;;;;;6.45;1.40;;;;;;;7.38;89.95;101842.25;5078116;28;20161;-80
2023/01/04 00:17:13;;;;;;;4.95;1.33;;;;;;;7.35;90.64;101839.63;5064481;28;20477;-79
2023/01/04 00:19:38;;;;;;;5.15;1.33;;;;;;;7.35;90.88;101837.03;5061413;28;20028;-79
2023/01/04 00:22:03;;;;;;;4.63;1.45;;;;;;;7.34;91.25;101843.09;5064143;28;20037;-79
2023/01/04 00:24:28;;;;;;;4.53;1.40;;;;;;;7.33;91.29;101840.50;5056118;28;20456;-80
2023/01/04 00:26:54;;;;;;;5.35;1.60;;;;;;;7.34;91.78;101829.28;5061223;28;20033;-79
2023/01/04 00:29:19;;;;;;;5.05;1.35;;;;;;;7.32;92.30;101826.69;5059972;28;20456;-79
2023/01/04 00:31:44;;;;;;;5.43;1.60;;;;;;;7.32;92.51;101818.06;5064506;28;20028;-79
2023/01/04 00:34:13;;;;;;;4.65;1.60;;;;;;;7.30;92.71;101807.72;5055367;28;20017;-80
2023/01/04 00:36:39;;;;;;;5.35;1.92;;;;;;;7.30;93.09;101805.13;5065659;28;20047;-79
2023/01/04 00:39:08;;;;;;;5.28;1.50;;;;;;;7.28;93.19;101809.44;5055260;28;20017;-79
2023/01/04 00:41:38;;;;;;;5.53;1.75;;;;;;;7.28;93.51;101801.66;5044889;28;20021;-80
2023/01/04 00:44:05;;;;;;;5.35;1.70;;;;;;;7.27;93.51;101786.97;5066045;28;20361;-80
2023/01/04 00:46:31;;;;;;;7.50;1.73;;;;;;;7.28;94.00;101791.31;5064738;28;20187;-81
2023/01/04 00:48:57;;;;;;;4.25;1.67;;;;;;;7.29;93.86;101777.50;5071425;28;20028;-79
2023/01/04 00:51:22;;;;;;;5.28;1.98;;;;;;;7.30;94.19;101776.66;5057762;28;20086;-80
2023/01/04 00:53:47;;;;;;;7.07;1.95;;;;;;;7.34;94.77;101775.81;5054929;28;20090;-79
2023/01/04 00:56:12;;;;;;;5.45;2.28;;;;;;;7.32;94.71;101767.16;5054014;28;20115;-79
2023/01/04 00:58:38;;;;;;;6.70;1.63;;;;;;;7.34;94.86;101764.56;5059682;28;20487;-80
2023/01/04 01:01:05;;;;;;;3.17;1.40;;;;;;;7.33;95.00;101763.72;5054156;28;20083;-80
2023/01/04 01:03:30;;;;;;;4.30;1.58;;;;;;;7.34;95.50;101749.03;5059828;28;20041;-80
2023/01/04 01:06:00;;;;;;;2.30;1.30;;;;;;;7.35;95.29;101764.56;5048052;28;20027;-80
2023/01/04 01:08:26;;;;;;;5.38;1.70;;;;;;;7.38;95.39;101761.97;5063866;28;20029;-80
2023/01/04 01:10:52;;;;;;;6.18;1.33;;;;;;;7.39;95.75;101755.09;5064613;28;20047;-80
2023/01/04 01:13:19;;;;;;;3.65;1.35;;;;;;;7.38;95.79;101754.22;5059238;28;20078;-81
2023/01/04 01:15:44;;;;;;;4.95;1.40;;;;;;;7.39;96.45;101742.16;5075208;28;20115;-80
2023/01/04 01:18:09;;;;;;;3.00;1.40;;;;;;;7.38;96.69;101741.28;5060732;28;20561;-81
2023/01/04 01:20:43;;;;;;;4.63;1.60;;;;;;;7.40;96.85;101741.28;5052072;28;20032;-80
2023/01/04 01:23:13;;;;;;;4.70;1.70;;;;;;;7.41;97.13;101730.09;5073145;28;20433;-80
2023/01/04 01:25:39;;;;;;;4.53;1.70;;;;;;;7.41;97.30;101736.09;5059218;28;20058;-80
2023/01/04 01:28:05;;;;;;;4.20;1.30;;;;;;;7.42;97.39;101737.00;5068702;28;20107;-80
2023/01/04 01:30:30;;;;;;;5.43;1.25;;;;;;;7.46;97.78;101727.50;5062236;28;20106;-80
2023/01/04 01:32:55;;;;;;;4.57;1.30;;;;;;;7.44;97.74;101730.94;5067202;28;20032;-80
2023/01/04 01:35:21;;;;;;;2.15;1.20;;;;;;;7.44;97.66;101743.88;5052874;28;20487;-81
2023/01/04 01:37:46;;;;;;;4.45;1.25;;;;;;;7.48;98.04;101728.38;5062813;28;20048;-79
2023/01/04 01:40:11;;;;;;;4.65;1.38;;;;;;;7.50;97.94;101734.41;5054147;28;20020;-80
2023/01/04 01:42:37;;;;;;;3.42;1.17;;;;;;;7.49;97.90;101738.72;5070654;28;20173;-81
2023/01/04 01:45:23;;;;;;;2.15;1.10;;;;;;;7.53;98.33;101713.66;5070501;28;20028;-80
2023/01/04 01:47:50;;;;;;;2.78;1.30;;;;;;;7.53;98.21;101721.44;5056980;28;20439;-80
2023/01/04 01:50:28;;;;;;;5.18;1.40;;;;;;;7.56;98.43;101724.03;5055743;28;20025;-80
2023/01/04 01:52:58;;;;;;;4.15;1.45;;;;;;;7.56;98.67;101711.09;5063680;28;20029;-80
2023/01/04 01:55:24;;;;;;;6.13;1.42;;;;;;;7.58;98.80;101699.00;5061742;28;20025;-81
2023/01/04 01:57:53;;;;;;;2.53;1.38;;;;;;;7.58;99.10;101722.31;5057208;28;20021;-81
2023/01/04 02:00:18;;;;;;;3.35;1.48;;;;;;;7.58;99.20;101711.97;5053641;28;20115;-82
2023/01/04 02:02:55;;;;;;;2.78;1.38;;;;;;;7.59;99.26;101708.50;5056935;28;20119;-80
2023/01/04 02:05:21;;;;;;;2.67;1.60;;;;;;;7.60;99.33;101699.88;5061981;28;20076;-81
2023/01/04 02:07:48;;;;;;;5.13;1.50;;;;;;;7.59;99.54;101699.03;5065796;28;20060;-80
2023/01/04 02:10:14;;;;;;;5.20;1.70;;;;;;;7.58;100.00;101699.00;5063999;28;20447;-80
2023/01/04 02:12:40;;;;;;;3.08;1.40;;;;;;;7.58;99.89;101704.19;5061774;28;20032;-81
2023/01/04 02:15:06;;;;;;;3.20;1.60;;;;;;;7.63;99.88;101699.00;5071254;28;20050;-80
2023/01/04 02:18:00;;;;;;;2.70;1.70;;;;;;;7.64;100.00;101703.31;5070726;28;20024;-80
2023/01/04 02:20:35;;;;;;;2.42;1.48;;;;;;;7.64;100.00;101706.78;5062463;28;20052;-80
2023/01/04 02:23:28;;;;;;;3.13;1.70;;;;;;;7.66;100.00;101718.03;5054282;28;20028;-80
2023/01/04 02:26:08;;;;;;;3.58;1.70;;;;;;;7.70;100.00;101711.97;5044165;28;20043;-79
2023/01/04 02:28:48;;;;;;;2.50;1.50;;;;;;;7.68;100.00;101690.41;5057544;28;20388;-80
2023/01/04 02:31:29;;;;;;;4.18;1.80;;;;;;;7.69;100.00;101694.69;5071506;28;20024;-80
2023/01/04 02:34:40;;;;;;;3.30;1.65;;;;;;;7.71;100.00;101700.75;5072179;28;20063;-80
2023/01/04 02:37:24;;;;;;;2.75;1.60;;;;;;;7.70;100.00;101691.25;5064699;28;20044;-81
2023/01/04 02:40:05;;;;;;;2.30;1.42;;;;;;;7.72;100.00;101680.91;5058508;28;20040;-80
2023/01/04 02:46:07;;;;;;;2.00;1.25;;;;;;;7.74;100.00;101666.22;5073420;28;20417;-81
2023/01/04 02:51:30;;;;;;;2.92;1.38;;;;;;;7.78;100.00;101654.97;5068528;28;20063;-80
2023/01/04 02:53:59;;;;;;;1.98;1.15;;;;;;;7.79;100.00;101659.28;5074985;28;20028;-80
2023/01/04 02:56:34;;;;;;;1.90;1.20;;;;;;;7.81;100.00;101651.53;5061305;28;20099;-81
2023/01/04 02:59:20;;;;;;;2.85;1.20;;;;;;;7.84;100.00;101646.34;5065663;28;20029;-81
2023/01/04 03:07:52;;;;;;;1.60;1.00;;;;;;;7.93;100.00;101635.97;5069699;28;20223;-81
2023/01/04 03:10:36;;;;;;;2.05;1.00;;;;;;;7.95;100.00;101629.06;5065334;28;20106;-80
2023/01/04 03:13:12;;;;;;;2.42;1.02;;;;;;;7.99;100.00;101630.78;5068563;28;20043;-80
2023/01/04 03:15:40;;;;;;;1.25;0.93;;;;;;;8.00;100.00;101640.28;5070696;28;20398;-80
2023/01/04 03:18:14;;;;;;;1.48;1.00;;;;;;;8.02;100.00;101630.78;5071041;28;20028;-80
2023/01/04 03:20:42;;;;;;;1.55;1.00;;;;;;;8.05;100.00;101620.38;5073219;28;20028;-81
2023/01/04 03:37:31;;;;;;;1.70;0.85;;;;;;;8.15;100.00;101594.44;5072728;28;20399;-80
2023/01/04 03:49:30;;;;;;;1.63;0.90;;;;;;;8.23;100.00;101600.44;5057537;28;20566;-80
2023/01/04 03:51:59;;;;;;;1.33;1.02;;;;;;;8.25;100.00;101590.94;5068974;28;20086;-81
2023/01/04 03:54:32;;;;;;;1.40;1.05;;;;;;;8.25;100.00;101572.81;5066002;28;20063;-79
2023/01/04 03:56:58;;;;;;;1.63;1.20;;;;;;;8.31;100.00;101570.19;5070086;28;20028;-80
2023/01/04 03:59:24;;;;;;;1.85;1.02;;;;;;;8.29;100.00;101563.28;5073125;28;20497;-80
2023/01/04 04:01:50;;;;;;;1.10;1.00;;;;;;;8.35;100.00;101563.25;5068503;28;20024;-80
2023/01/04 04:09:43;;;;;;;2.15;1.02;;;;;;;8.34;100.00;101565.00;5062096;28;20086;-80
2023/01/04 04:12:08;;;;;;;1.77;1.20;;;;;;;8.35;100.00;101560.66;5054499;28;20032;-80
2023/01/04 04:14:33;;;;;;;1.50;1.02;;;;;;;8.40;100.00;101571.00;5067040;28;20024;-81
2023/01/04 04:16:59;;;;;;;3.88;1.10;;;;;;;8.41;100.00;101545.09;5073408;28;20487;-80
2023/01/04 04:19:24;;;;;;;1.83;1.20;;;;;;;8.42;100.00;101551.13;5072767;28;20020;-80
2023/01/04 04:21:49;;;;;;;2.00;1.17;;;;;;;8.45;100.00;101543.31;5074131;28;20083;-81
2023/01/04 04:24:20;;;;;;;2.28;1.30;;;;;;;8.49;100.00;101550.25;5063657;28;20021;-80
2023/01/04 04:26:46;;;;;;;1.85;1.17;;;;;;;8.47;100.00;101539.00;5060032;28;20020;-79
2023/01/04 04:29:11;;;;;;;2.13;1.10;;;;;;;8.48;100.00;101554.56;5073571;28;20052;-81
2023/01/04 04:31:36;;;;;;;1.30;1.10;;;;;;;8.53;100.00;101539.00;5060958;28;20400;-79
2023/01/04 04:34:02;;;;;;;2.15;1.10;;;;;;;8.53;100.00;101544.19;5061202;28;20025;-79
2023/01/04 04:36:27;;;;;;;1.40;1.17;;;;;;;8.51;100.00;101525.19;5060917;28;20028;-80
2023/01/04 04:38:52;;;;;;;3.45;1.60;;;;;;;8.53;100.00;101544.19;5063036;28;20112;-80
2023/01/04 04:44:02;;;;;;;2.47;1.55;;;;;;;8.55;100.00;101532.03;5070093;28;20441;-80
2023/01/04 04:46:28;;;;;;;3.00;1.30;;;;;;;8.58;100.00;101521.66;5064037;28;20064;-80
2023/01/04 04:48:53;;;;;;;2.92;1.60;;;;;;;8.58;100.00;101508.69;5066430;28;20396;-80
2023/01/04 04:51:18;;;;;;;2.13;1.60;;;;;;;8.60;100.00;101509.53;5065532;28;20058;-80
2023/01/04 04:53:44;;;;;;;3.53;1.70;;;;;;;8.63;100.00;101519.91;5068677;28;20020;-80
2023/01/04 04:56:10;;;;;;;2.10;1.52;;;;;;;8.62;100.00;101507.81;5066237;28;20021;-80
2023/01/04 04:58:35;;;;;;;2.03;1.55;;;;;;;8.67;100.00;101506.91;5070609;28;20024;-80
2023/01/04 05:01:01;;;;;;;2.88;1.70;;;;;;;8.65;100.00;101512.09;5067463;28;20467;-80
2023/01/04 05:03:26;;;;;;;1.73;1.35;;;;;;;8.69;100.00;101500.00;5066638;28;20044;-80
2023/01/04 05:05:52;;;;;;;1.73;1.50;;;;;;;8.71;100.00;101503.44;5066053;28;20029;-80
2023/01/04 05:08:17;;;;;;;2.28;1.35;;;;;;;8.73;100.00;101493.88;5072588;28;20031;-80
2023/01/04 05:10:42;;;;;;;2.45;1.65;;;;;;;8.78;100.00;101507.69;5062586;28;20036;-81
2023/01/04 05:13:11;;;;;;;2.63;1.58;;;;;;;8.80;100.00;101500.75;5061991;28;20069;-80
2023/01/04 05:15:39;;;;;;;3.15;1.52;;;;;;;8.81;100.00;101494.69;5059578;28;20060;-80
2023/01/04 05:18:06;;;;;;;3.28;1.50;;;;;;;8.85;100.00;101503.31;5058484;28;20033;-81
2023/01/04 05:20:31;;;;;;;3.83;1.52;;;;;;;8.85;100.00;101487.75;5063126;28;20491;-80
2023/01/04 05:22:57;;;;;;;2.75;1.65;;;;;;;8.87;100.00;101488.59;5060509;28;20032;-80
2023/01/04 05:25:22;;;;;;;3.83;1.50;;;;;;;8.89;100.00;101486.84;5067849;28;20021;-80
2023/01/04 05:27:47;;;;;;;2.83;1.40;;;;;;;8.92;100.00;101472.13;5066231;28;20376;-80
2023/01/04 05:32:59;;;;;;;2.33;1.63;;;;;;;8.98;100.00;101478.97;5063561;28;20038;-80
2023/01/04 05:35:25;;;;;;;3.15;1.52;;;;;;;9.01;100.00;101468.56;5065049;28;20051;-80
2023/01/04 05:37:50;;;;;;;2.30;1.55;;;;;;;9.00;100.00;101466.00;5062729;28;20064;-81
2023/01/04 05:40:16;;;;;;;3.30;1.45;;;;;;;9.04;100.00;101462.50;5070535;28;20035;-80
2023/01/04 05:42:41;;;;;;;3.20;1.45;;;;;;;9.05;100.00;101456.44;5058363;28;20033;-79
2023/01/04 05:45:07;;;;;;;2.95;1.50;;;;;;;9.08;100.00;101454.69;5071852;28;20037;-80
2023/01/04 05:47:33;;;;;;;2.45;1.55;;;;;;;9.10;100.00;101452.94;5067438;28;20012;-79
2023/01/04 05:49:58;;;;;;;2.63;1.45;;;;;;;9.12;100.00;101442.53;5060133;28;20025;-80
2023/01/04 05:52:24;;;;;;;2.80;1.70;;;;;;;9.17;100.00;101458.03;5060781;28;20021;-81
2023/01/04 05:54:49;;;;;;;3.25;1.50;;;;;;;9.17;100.00;101453.72;5058893;28;20017;-82
2023/01/04 05:57:15;;;;;;;2.25;1.35;;;;;;;9.17;100.00;101445.06;5060232;28;20368;-80
2023/01/04 05:59:40;;;;;;;1.83;1.30;;;;;;;9.18;100.00;101441.59;5058206;28;20475;-79
2023/01/04 06:02:06;;;;;;;3.50;1.40;;;;;;;9.16;100.00;101446.81;5060996;28;20024;-80
2023/01/04 06:04:31;;;;;;;2.03;1.30;;;;;;;9.17;100.00;101442.47;5067019;28;20106;-80
2023/01/04 06:06:56;;;;;;;2.85;1.35;;;;;;;9.18;100.00;101426.91;5064368;28;20032;-80
2023/01/04 06:09:23;;;;;;;2.60;1.70;;;;;;;9.17;100.00;101443.34;5066447;28;20033;-80
2023/01/04 06:11:49;;;;;;;4.28;1.42;;;;;;;9.19;100.00;101426.03;5081685;28;20031;-79
2023/01/04 06:14:14;;;;;;;3.80;1.48;;;;;;;9.21;100.00;101426.00;5056893;28;20012;-80
2023/01/04 06:16:39;;;;;;;1.75;1.35;;;;;;;9.24;100.00;101438.94;5066018;28;20032;-80
2023/01/04 06:19:05;;;;;;;1.65;1.20;;;;;;;9.26;100.00;101443.22;5062068;28;20025;-80
2023/01/04 06:21:30;;;;;;;1.67;1.20;;;;;;;9.29;100.00;101441.47;5066300;28;20025;-79
2023/01/04 06:23:55;;;;;;;2.40;1.30;;;;;;;9.30;100.00;101448.41;5068360;28;20060;-81
2023/01/04 06:26:20;;;;;;;1.73;1.35;;;;;;;9.31;100.00;101458.75;5054720;28;20033;-80
2023/01/04 06:28:46;;;;;;;1.95;1.40;;;;;;;9.36;100.00;101437.97;5070517;28;20024;-80
2023/01/04 06:31:12;;;;;;;1.83;1.00;;;;;;;9.35;100.00;101438.84;5072414;28;20475;-80
2023/01/04 06:33:38;;;;;;;2.78;1.20;;;;;;;9.36;100.00;101431.00;5054422;28;20399;-80
2023/01/04 06:36:04;;;;;;;2.28;1.67;;;;;;;9.37;100.00;101426.69;5072416;28;20029;-80
2023/01/04 06:38:31;;;;;;;2.70;1.30;;;;;;;9.34;100.00;101429.31;5070150;28;20486;-81
2023/01/04 06:40:56;;;;;;;2.70;1.20;;;;;;;9.34;100.00;101430.16;5067142;28;20495;-81
2023/01/04 06:43:21;;;;;;;2.08;1.40;;;;;;;9.34;100.00;101421.53;5062654;28;20029;-80
2023/01/04 06:45:47;;;;;;;3.22;1.02;;;;;;;9.38;100.00;101425.81;5072375;28;20346;-80
2023/01/04 06:48:12;;;;;;;2.28;1.30;;;;;;;9.35;100.00;101447.47;5072045;28;20077;-80
2023/01/04 06:50:37;;;;;;;2.20;1.20;;;;;;;9.35;100.00;101436.22;5071950;28;20475;-80
2023/01/04 06:53:03;;;;;;;3.72;1.30;;;;;;;9.34;100.00;101439.72;5069711;28;20112;-80
2023/01/04 06:55:28;;;;;;;2.47;1.10;;;;;;;9.37;100.00;101440.53;5061035;28;20467;-80
2023/01/04 06:57:54;;;;;;;4.07;1.20;;;;;;;9.38;100.00;101436.22;5067603;28;20025;-81
2023/01/04 07:00:20;;;;;;;3.72;1.00;;;;;;;9.37;100.00;101431.88;5063583;28;20024;-80
2023/01/04 07:02:45;;;;;;;1.92;1.00;;;;;;;9.40;100.00;101437.91;5067034;28;20023;-80
2023/01/04 07:05:10;;;;;;;2.47;1.20;;;;;;;9.39;100.00;101438.78;5069688;28;20468;-80
2023/01/04 07:07:35;;;;;;;1.40;1.00;;;;;;;9.41;100.00;101430.94;5070317;28;20036;-80
2023/01/04 07:10:01;;;;;;;2.17;1.00;;;;;;;9.43;100.00;101420.56;5053152;28;20484;-80
2023/01/04 07:12:26;;;;;;;1.65;0.93;;;;;;;9.43;100.00;101437.00;5072914;28;20024;-80
2023/01/04 07:14:52;;;;;;;2.38;0.98;;;;;;;9.50;100.00;101436.06;5068587;28;20020;-79
2023/01/04 07:17:17;;;;;;;4.25;1.10;;;;;;;9.52;100.00;101423.91;5064219;28;20024;-79
2023/01/04 07:19:42;;;;;;;2.63;1.00;;;;;;;9.54;100.00;101401.38;5067932;28;20032;-80
2023/01/04 07:22:08;;;;;;;1.40;0.85;;;;;;;9.56;100.00;101415.19;5073945;28;20028;-80
2023/01/04 07:24:33;;;;;;;2.30;1.00;;;;;;;9.61;100.00;101427.25;5066706;28;20025;-80
2023/01/04 07:26:59;;;;;;;1.83;1.00;;;;;;;9.60;100.00;101423.81;5075183;28;20103;-79
2023/01/04 07:29:24;;;;;;;2.60;0.98;;;;;;;9.64;100.00;101403.84;5066655;28;20033;-79
2023/01/04 07:31:51;;;;;;;2.63;1.05;;;;;;;9.69;100.00;101412.47;5040543;28;20087;-81
2023/01/04 07:34:18;;;;;;;1.98;0.90;;;;;;;9.75;100.00;101404.56;5071723;28;20374;-83
2023/01/04 07:36:44;;;;;;;4.20;1.25;;;;;;;9.79;100.00;101401.06;5074847;28;20032;-80
2023/01/04 07:39:11;;;;;;;2.80;0.90;;;;;;;9.85;100.00;101394.91;5075156;28;20471;-80
2023/01/04 07:41:37;;;;;;;2.30;0.90;;;;;;;9.87;100.00;101394.03;5056168;28;20074;-79
2023/01/04 07:44:02;;;;;;;1.30;0.90;;;;;;;9.95;100.00;101390.44;5075058;28;20411;-80
2023/01/04 07:46:28;;;;;;;2.50;0.88;;;;;;;9.94;100.00;101388.72;5074743;28;20024;-80
2023/01/04 07:48:53;;;;;;;2.85;0.90;;;;;;;9.93;100.00;101376.59;5074269;28;20028;-80
2023/01/04 07:51:18;;;;;;;1.30;0.70;;;;;;;9.93;100.00;101384.41;5073989;28;20027;-80
2023/01/04 07:53:43;;;;;;;1.60;0.75;;;;;;;9.91;100.00;101370.56;5075035;28;20036;-80
2023/01/04 07:56:09;;;;;;;2.00;0.80;;;;;;;9.94;100.00;101378.31;5074313;28;20039;-80
2023/01/04 07:58:34;;;;;;;2.38;0.70;;;;;;;9.97;100.00;101370.47;5056351;28;20035;-81
2023/01/04 08:01:12;;;;;;;1.67;0.80;;;;;;;9.99;100.00;101350.53;5074989;28;20021;-80
2023/01/04 08:03:37;;;;;;;4.35;0.75;;;;;;;10.00;100.00;101358.28;5072259;28;20056;-81
2023/01/04 08:06:04;;;;;;;1.10;0.60;;;;;;;10.02;99.91;101366.94;5073441;28;20089;-81
2023/01/04 08:08:29;;;;;;;3.95;0.80;;;;;;;10.05;100.00;101371.25;5055771;28;20052;-79
2023/01/04 08:10:54;;;;;;;1.27;0.50;;;;;;;10.04;99.50;101364.34;5054606;28;20071;-80
2023/01/04 08:13:20;;;;;;;1.65;0.80;;;;;;;10.06;99.57;101372.97;5054565;28;20230;-80
2023/01/04 08:15:52;;;;;;;1.27;0.75;;;;;;;10.10;99.15;101369.41;5063436;28;20031;-79
2023/01/04 08:18:17;;;;;;;1.33;0.70;;;;;;;10.16;98.35;101366.72;5073707;28;20027;-80
2023/01/04 08:20:42;;;;;;;2.58;0.88;;;;;;;10.23;98.14;101358.84;5073474;28;20033;-81
2023/01/04 08:23:07;;;;;;;2.95;0.60;;;;;;;10.28;97.89;101359.59;5074364;28;20099;-81
2023/01/04 08:25:32;;;;;;;3.72;0.63;;;;;;;10.32;97.79;101395.09;5061846;28;20383;-82
2023/01/04 08:27:58;;;;;;;4.55;1.77;;;;;;;10.30;97.90;101382.13;5074330;28;20221;-79
2023/01/04 08:30:23;;;;;;;4.20;0.77;;;;;;;10.29;98.20;101370.00;5070275;28;20025;-80
2023/01/04 08:32:49;;;;;;;2.00;0.90;;;;;;;10.27;98.69;101368.28;5071744;28;20036;-80
2023/01/04 08:35:14;;;;;;;2.47;0.82;;;;;;;10.29;98.23;101369.13;5068641;28;20016;-80
2023/01/04 08:37:40;;;;;;;1.83;0.90;;;;;;;10.31;98.17;101375.16;5048147;28;20043;-80
2023/01/04 08:40:06;;;;;;;2.10;0.90;;;;;;;10.31;98.08;101380.38;5067607;28;20153;-82
2023/01/04 08:42:31;;;;;;;2.60;0.82;;;;;;;10.36;97.63;101381.16;5062453;28;20029;-80
2023/01/04 08:44:57;;;;;;;1.45;0.80;;;;;;;10.41;97.47;101384.59;5070747;28;20076;-81
2023/01/04 08:47:22;;;;;;;1.85;0.70;;;;;;;10.40;97.54;101392.41;5067835;28;20064;-82
2023/01/04 08:49:48;;;;;;;4.80;1.00;;;;;;;10.44;97.20;101365.47;5063475;28;20040;-80
2023/01/04 08:52:14;;;;;;;4.40;0.90;;;;;;;10.47;97.34;101394.88;5054935;28;20067;-82
2023/01/04 08:54:40;;;;;;;2.60;0.90;;;;;;;10.49;96.79;101387.06;5059791;28;20051;-81
2023/01/04 08:57:05;;;;;;;2.05;0.95;;;;;;;10.50;97.17;101391.38;5060052;28;20029;-81
2023/01/04 08:59:30;;;;;;;1.60;0.70;;;;;;;10.52;96.81;101417.38;5070547;28;20082;-81
2023/01/04 09:01:55;;;;;;;3.65;1.02;;;;;;;10.58;96.55;101406.88;5060987;28;20373;-80
2023/01/04 09:04:21;;;;;;;1.90;0.70;;;;;;;10.59;96.25;101379.97;5061898;28;20040;-81
2023/01/04 09:06:46;;;;;;;2.50;0.80;;;;;;;10.61;96.36;101397.25;5059333;28;22260;-82
2023/01/04 09:09:13;;;;;;;2.70;1.00;;;;;;;10.62;96.13;101403.31;5060590;28;20029;-80
2023/01/04 09:11:38;;;;;;;4.28;1.23;;;;;;;10.64;95.86;101406.75;5063804;28;20189;-82
2023/01/04 09:14:04;;;;;;;2.10;0.93;;;;;;;10.65;95.78;101379.84;5061660;28;20477;-80
2023/01/04 09:16:29;;;;;;;2.50;0.88;;;;;;;10.71;95.51;101395.34;5064010;28;20027;-81
2023/01/04 09:18:55;;;;;;;5.68;0.95;;;;;;;10.70;95.58;101395.38;5066845;28;20032;-81
2023/01/04 09:21:21;;;;;;;3.17;1.02;;;;;;;10.71;95.60;101376.25;5065752;28;20032;-80
2023/01/04 09:23:47;;;;;;;3.63;0.80;;;;;;;10.74;95.58;101392.72;5067813;28;20060;-81
2023/01/04 09:26:15;;;;;;;2.67;0.73;;;;;;;10.75;95.58;101397.03;5066502;28;20029;-81
2023/01/04 09:28:42;;;;;;;2.45;0.80;;;;;;;10.78;95.38;101386.53;5064669;28;20048;-81
2023/01/04 09:31:14;;;;;;;2.67;0.90;;;;;;;10.81;95.06;101370.03;5069471;28;20092;-81
2023/01/04 09:33:40;;;;;;;3.35;0.90;;;;;;;10.83;95.35;101370.00;5069683;28;20391;-81
2023/01/04 09:36:07;;;;;;;2.10;0.70;;;;;;;10.87;95.10;101369.06;5066134;28;20054;-81
2023/01/04 09:38:34;;;;;;;3.72;0.77;;;;;;;10.84;95.50;101382.13;5073128;28;20035;-80
2023/01/04 09:41:25;;;;;;;2.30;0.75;;;;;;;10.88;95.52;101383.78;5061338;28;20060;-80
2023/01/04 09:43:55;;;;;;;2.20;0.60;;;;;;;10.88;95.64;101389.00;5057392;28;20063;-82
2023/01/04 09:46:39;;;;;;;2.75;0.80;;;;;;;10.88;95.71;101384.63;5068127;28;20479;-81
2023/01/04 09:49:21;;;;;;;3.63;0.80;;;;;;;10.88;95.65;101394.19;5054108;28;20031;-81
2023/01/04 09:52:02;;;;;;;2.15;0.70;;;;;;;10.85;96.58;101381.22;5059631;28;20032;-83
2023/01/04 09:54:39;;;;;;;1.80;0.70;;;;;;;10.81;96.76;101388.25;5062917;28;20020;-80
2023/01/04 09:57:12;;;;;;;2.35;0.70;;;;;;;10.79;97.31;101384.81;5072104;28;20028;-81
2023/01/04 09:59:37;;;;;;;2.45;0.80;;;;;;;10.74;97.99;101381.41;5072835;28;20028;-80
2023/01/04 10:02:11;;;;;;;2.67;0.80;;;;;;;10.76;97.84;101384.84;5066015;28;20028;-82
2023/01/04 10:04:48;;;;;;;2.13;0.95;;;;;;;10.76;98.14;101382.25;5062672;28;20128;-81
2023/01/04 10:07:27;;;;;;;3.47;0.80;;;;;;;10.76;98.19;101375.28;5063139;28;20032;-81
2023/01/04 10:09:53;;;;;;;2.33;0.90;;;;;;;10.80;98.29;101375.25;5062280;28;20091;-80
2023/01/04 10:12:38;;;;;;;4.20;0.80;;;;;;;10.82;98.44;101396.91;5061594;28;20024;-83
2023/01/04 10:15:14;;;;;;;2.05;1.08;;;;;;;10.80;98.19;101378.72;5063846;28;20021;-80
2023/01/04 10:18:04;;;;;;;5.65;1.00;;;;;;;10.81;98.39;101376.97;5062538;28;20029;-81
2023/01/04 10:21:11;;;;;;;2.92;0.98;;;;;;;10.75;98.96;101377.94;5041557;28;20074;-81
2023/01/04 10:24:04;;;;;;;2.67;1.00;;;;;;;10.73;99.39;101375.38;5041906;28;20107;-80
2023/01/04 10:26:44;;;;;;;2.15;1.00;;;;;;;10.71;99.44;101361.53;5062051;28;20032;-81
2023/01/04 10:29:40;;;;;;;2.58;1.08;;;;;;;10.67;100.00;101370.25;5061684;28;20024;-81
2023/01/04 10:32:32;;;;;;;2.05;1.00;;;;;;;10.70;100.00;101380.63;5065770;28;20539;-82
2023/01/04 10:34:58;;;;;;;3.03;1.20;;;;;;;10.67;100.00;101365.06;5063169;28;20028;-80
2023/01/04 10:37:29;;;;;;;3.20;1.30;;;;;;;10.68;100.00;101371.97;5064208;28;20025;-81
2023/01/04 10:39:55;;;;;;;2.95;1.20;;;;;;;10.65;100.00;101371.19;5060737;28;20383;-80
2023/01/04 10:42:31;;;;;;;6.55;1.55;;;;;;;10.64;100.00;101362.50;5060709;28;20028;-80
2023/01/04 10:45:14;;;;;;;2.72;1.13;;;;;;;10.69;100.00;101363.28;5060895;28;20025;-81
2023/01/04 10:48:12;;;;;;;4.97;1.25;;;;;;;10.66;100.00;101359.91;5046547;28;20037;-81
2023/01/04 10:50:56;;;;;;;4.60;1.40;;;;;;;10.67;100.00;101346.00;5066789;28;20052;-81
2023/01/04 10:53:29;;;;;;;4.85;1.73;;;;;;;10.65;100.00;101356.41;5049472;28;20115;-81
2023/01/04 10:56:17;;;;;;;2.65;1.02;;;;;;;10.63;100.00;101347.78;5067933;28;20472;-80
2023/01/04 10:59:02;;;;;;;3.92;1.25;;;;;;;10.67;100.00;101339.03;5066530;28;20052;-81
2023/01/04 11:01:40;;;;;;;4.55;1.25;;;;;;;10.65;100.00;101347.78;5065879;28;20032;-80
2023/01/04 11:04:16;;;;;;;3.08;1.20;;;;;;;10.67;100.00;101349.44;5064141;28;20128;-81
2023/01/04 11:06:55;;;;;;;3.10;1.10;;;;;;;10.64;100.00;101344.28;5065826;28;20085;-81
2023/01/04 11:09:24;;;;;;;2.88;1.00;;;;;;;10.65;100.00;101346.00;5065886;28;20024;-81
2023/01/04 11:11:50;;;;;;;1.73;0.98;;;;;;;10.66;100.00;101350.34;5068593;28;20428;-81
2023/01/04 11:14:15;;;;;;;2.78;1.00;;;;;;;10.69;100.00;101352.88;5047954;28;20107;-82
2023/01/04 11:16:45;;;;;;;3.45;1.20;;;;;;;10.69;100.00;101352.00;5067043;28;20036;-80
2023/01/04 11:19:11;;;;;;;1.83;0.88;;;;;;;10.68;100.00;101361.56;5066524;28;20044;-82
2023/01/04 11:21:47;;;;;;;5.20;1.02;;;;;;;10.68;100.00;101350.28;5068154;28;20414;-82
2023/01/04 11:24:15;;;;;;;5.13;0.98;;;;;;;10.68;100.00;101356.38;5064546;28;20479;-83
2023/01/04 11:26:43;;;;;;;2.80;0.80;;;;;;;10.71;100.00;101358.06;5066310;28;20113;-82
2023/01/04 11:29:27;;;;;;;2.55;0.90;;;;;;;10.70;100.00;101354.59;5067486;28;20032;-82
2023/01/04 11:32:09;;;;;;;1.25;0.70;;;;;;;10.70;100.00;101348.53;5066115;28;20024;-84
2023/01/04 11:34:56;;;;;;;1.27;0.75;;;;;;;10.69;100.00;101346.81;5064738;28;20012;-81
2023/01/04 11:37:36;;;;;;;1.13;0.70;;;;;;;10.70;100.00;101353.72;5062863;28;20112;-82
2023/01/04 11:40:17;;;;;;;3.08;0.80;;;;;;;10.70;100.00;101341.59;5064808;28;20027;-83
2023/01/04 11:42:51;;;;;;;1.17;0.60;;;;;;;10.68;100.00;101340.75;5065827;28;20230;-82
2023/01/04 11:45:20;;;;;;;1.70;0.70;;;;;;;10.70;100.00;101343.31;5064466;28;20285;-83
2023/01/04 11:47:48;;;;;;;2.65;0.68;;;;;;;10.67;100.00;101348.59;5062989;28;20024;-82
2023/01/04 11:50:34;;;;;;;1.60;0.70;;;;;;;10.69;100.00;101368.50;5066727;28;20476;-82
2023/01/04 11:53:00;;;;;;;1.27;0.70;;;;;;;10.68;100.00;101358.09;5060015;28;20024;-83
2023/01/04 11:55:30;;;;;;;2.78;0.82;;;;;;;10.68;100.00;101353.78;5065823;28;20025;-83
2023/01/04 11:58:13;;;;;;;1.92;0.73;;;;;;;10.70;100.00;101345.91;5068127;28;20054;-83
2023/01/04 12:00:57;;;;;;;3.92;0.80;;;;;;;10.66;100.00;101352.94;5061002;28;20056;-83
2023/01/04 12:03:25;;;;;;;1.90;0.65;;;;;;;10.63;100.00;101363.38;5062295;28;20051;-82
2023/01/04 12:05:51;;;;;;;1.33;0.60;;;;;;;10.62;100.00;101346.06;5061410;28;20040;-82
2023/01/04 12:08:33;;;;;;;1.75;0.63;;;;;;;10.62;100.00;101348.66;5064492;28;20102;-81
2023/01/04 12:11:01;;;;;;;0.75;0.70;;;;;;;10.61;100.00;101355.63;5064777;28;20040;-82
2023/01/04 12:13:27;;;;;;;2.15;0.80;;;;;;;10.67;100.00;101348.59;5065912;28;20060;-83
2023/01/04 12:16:20;;;;;;;1.00;0.50;;;;;;;10.65;100.00;101346.00;5062202;28;20111;-82
2023/01/04 12:18:46;;;;;;;0.63;0.50;;;;;;;10.62;100.00;101362.53;5042963;28;20484;-84
2023/01/04 12:21:18;;;;;;;0.75;0.40;;;;;;;10.62;100.00;101354.75;5063076;28;20040;-82